Airfield :
LOGIN :

Register | Disclaimer

   EN    FR    IT 

 










Legend :    VFR   Marginal VFR   IFR   Intensive IFR   Very Intensive IFR
Visi :
Ceiling :
>= 8 km
>= 3000ft
5 to 8 km
1000 to 3000 ft
1500m to 5 km
500 to 1000 ft
800 to 1500m
200 to 500 ft
< 800m
< 200 ft
Symbols :   Thunderstorms  Fog  Heavy snow  Heavy precipitations  Wind > 20 kt
SIGMETs :     Misc.  Thunderstorms  Icing  Turbulence  Mountain Waves  Volcanic Ashes







- Airport Elevation : 31 ft
- IATA code : INV
- Download approach charts


EGPE - Inverness

CURRENT METAR :
  • 220250Z AUTO 23007KT 9999 DZ BKN027/// 16/15 Q1006

EXPIRED METARs :
  • 220220Z 23007KT 9999 -RA FEW010 SCT020 BKN025 16/15 Q1006
  • 220150Z 25011KT 9999 -RA FEW014 SCT017 16/15 Q1006
  • 220120Z AUTO 25014KT 9999 -RA FEW020/// 16/15 Q1006
  • 220050Z AUTO 25010KT 9999 -DZ SCT022/// 17/16 Q1006
  • 220020Z AUTO 25011KT 9999 -DZ BKN020/// 17/16 Q1006

TAF TAF EGPE
Valid from the 22 at 03:00 until the 22 at 12:00 UTC


220158Z 2203/2212 25007KT 9999 BKN030
PROB30
TEMPO 2203/2205 7000 RA
PROB40 2205/2209 31010KT
ATIS : +44 1667 464 255
No reported NOTAMs for that airfield.
2 SIGMETs reported for the Scottish FIR (EGPX) :
 
Severe turbulence
EGPX SIGMET 03 VALID 212308/220300 EGRR
EGPX SCOTTISH FIR SEV TURB FCST WI N5656 W00426 - N5835 W00239 - N5831 W00028 - N5517 W00135 - N5515 W00530 - N5656 W00426 FL070/200 MOV SE 10KT WKN=
Severe turbulence
EGPX SIGMET 01 VALID 220305/220700 EGRR
EGPX SCOTTISH FIR SEV TURB FCST WI N5802 W00233 - N5724 W00024 - N5508 W00135 - N5506 W00446 - N5802 W00233 FL070/200 STNR WKN=



MET'MAP, your aeronautical weather chart ! - Copyright ORBIFLY December 2007 - Disclaimer

ORBIFLY MET'MAP TEAM :

Programming & Development : Alexandra Zaïnal
Concept & Development : Baudouin d'Aumeries
Co-Development & Prog : Marc-Olivier Méhu
Technical & hardware support : Manuel Goepfert

Contact : metmap@orbifly.com




SOURCES & CREDITS :

   NOAA